Providence, Rhode Island
Traffic Map
Current Weather Conditions
Providence, Rhode Island
Few Clouds
Few Clouds
22°
Feels Like: 22°
Wind Chill: 22° Ceiling: Unl
Heat Index: 22° Visibility: 10mi
Dew Point: 17° Wind: 5mph
Humidity: 75% Direction: 180° (S)
Pressure: 30.11in Gusts: 0mph
Raw Report DataKPVD 311251Z 18004KT 10SM FEW250 22/17 A3011 RMK AO2 SLP196 T02170172
Traffic Incident Summary
Active as of:
Severity:
Category:
InformationThere was an issue retrieving the traffic information for this location. Please try a different location or try again shortly.
Advertisements
Track Severe Weather on mobile